Terminal Aerodrome Forecast
Issued by NWS

Home | Current Version | Previous Version | Text Only | Print | Product List | Glossary Off
Versions: 1 2 3 4 5 6 7 8 9 10 11 12

000
FTUS45 KGGW 181700
TAFOLF
TAF
KOLF 181740Z 1818/1918 10017KT P6SM OVC070
     FM182000 20012KT P6SM -SHRA OVC050
     FM182300 27014KT P6SM BKN070
     FM190100 28016KT P6SM SCT100=

USA.gov is the U.S. government's official web portal to all federal, state and local government web resources and services.